Time;durP1;ratioP1;P1;durP2;ratioP2;P2;SDS_P1;SDS_P2;PMS_P1;PMS_P2;Temp;Humidity;BMP_temperature;BMP_pressure;BME280_temperature;BME280_humidity;BME280_pressure;Samples;Min_cycle;Max_cycle;Signal;HPM_P1;HPM_P2
2022/08/25 00:02:05;;;;;;;23.50;9.27;;;;;;;-141.28;100.00;50059.34;5049871;28;20220;-77
2022/08/25 00:04:34;;;;;;;28.00;10.13;;;;;;;-141.28;100.00;50065.25;5050517;28;20255;-75
2022/08/25 00:07:03;;;;;;;22.37;9.17;;;;;;;-141.28;100.00;50075.06;5050328;28;20224;-75
2022/08/25 00:09:31;;;;;;;26.93;9.13;;;;;;;-141.28;100.00;50047.59;5050100;28;20208;-74
2022/08/25 00:11:59;;;;;;;20.93;9.00;;;;;;;-141.28;100.00;50026.00;5050317;28;20258;-75
2022/08/25 00:14:32;;;;;;;18.67;8.70;;;;;;;-141.28;100.00;50063.28;5049817;28;20197;-76
2022/08/25 00:16:59;;;;;;;24.83;9.30;;;;;;;-141.28;100.00;50063.28;5050672;28;20201;-76
2022/08/25 00:19:30;;;;;;;24.83;8.93;;;;;;;-141.28;100.00;50020.09;5050249;28;20551;-76
2022/08/25 00:21:59;;;;;;;26.03;9.37;;;;;;;-141.28;100.00;50024.03;5050282;28;20212;-76
2022/08/25 00:24:26;;;;;;;22.90;10.10;;;;;;;-141.28;100.00;49961.22;5051134;28;20644;-77
2022/08/25 00:26:56;;;;;;;20.80;8.87;;;;;;;-141.28;100.00;49971.03;5053460;28;20225;-74
2022/08/25 00:29:29;;;;;;;23.53;9.40;;;;;;;-141.28;100.00;50012.25;5052733;28;20193;-74
2022/08/25 00:31:58;;;;;;;21.67;9.33;;;;;;;-141.28;100.00;49957.31;5041999;28;20197;-74
2022/08/25 00:34:28;;;;;;;22.33;9.70;;;;;;;-141.28;100.00;49910.19;5053493;28;20229;-75
2022/08/25 00:36:55;;;;;;;21.03;9.27;;;;;;;-141.28;100.00;49841.50;5053731;28;20639;-75
2022/08/25 00:39:24;;;;;;;21.90;10.17;;;;;;;-141.28;100.00;49764.97;5053128;28;20200;-77
2022/08/25 00:41:53;;;;;;;22.97;10.43;;;;;;;-141.28;100.00;49729.66;5053756;28;20212;-76
2022/08/25 00:44:20;;;;;;;23.80;9.40;;;;;;;-141.28;100.00;49690.41;5053404;28;20201;-75
2022/08/25 00:46:51;;;;;;;17.57;9.30;;;;;;;-141.28;100.00;49672.75;5053655;28;20235;-74
2022/08/25 00:49:22;;;;;;;19.97;8.90;;;;;;;-141.28;100.00;49670.78;5053327;28;20299;-75
2022/08/25 00:51:55;;;;;;;25.53;9.87;;;;;;;-141.28;100.00;49633.50;5053500;28;20205;-76
2022/08/25 00:54:26;;;;;;;22.50;9.87;;;;;;;-141.28;100.00;49647.22;5053728;28;20671;-75
2022/08/25 00:56:55;;;;;;;26.70;10.13;;;;;;;-141.28;100.00;49607.97;5054161;28;20204;-76
2022/08/25 00:59:26;;;;;;;31.47;9.67;;;;;;;-141.28;100.00;49609.94;5054248;28;20291;-76
2022/08/25 01:01:57;;;;;;;25.17;9.97;;;;;;;-141.28;100.00;49596.22;5050672;28;20278;-74
2022/08/25 01:04:25;;;;;;;22.60;9.20;;;;;;;-141.28;100.00;49523.59;5042917;28;20216;-76
2022/08/25 01:06:54;;;;;;;25.03;8.97;;;;;;;-141.28;100.00;49531.44;5053130;28;20228;-76
2022/08/25 01:09:21;;;;;;;19.57;9.97;;;;;;;-141.28;100.00;49447.06;5052239;28;20275;-76
2022/08/25 01:11:49;;;;;;;27.40;9.47;;;;;;;-141.28;100.00;49502.03;5048475;28;20251;-76
2022/08/25 01:14:20;;;;;;;22.80;9.07;;;;;;;-141.28;100.00;49478.47;5043463;28;20272;-75
2022/08/25 01:16:47;;;;;;;29.13;9.33;;;;;;;-141.28;100.00;49454.94;5052311;28;20550;-76
2022/08/25 01:19:16;;;;;;;25.17;9.50;;;;;;;-141.28;100.00;49431.38;5040450;28;20726;-75
2022/08/25 01:21:48;;;;;;;17.70;9.73;;;;;;;-141.28;100.00;49388.22;5052625;28;20208;-75
2022/08/25 01:24:25;;;;;;;22.67;9.77;;;;;;;-141.28;100.00;49419.59;5053101;28;20212;-77
2022/08/25 01:26:53;;;;;;;18.03;8.83;;;;;;;-141.28;100.00;49443.16;5033238;28;20221;-75
2022/08/25 01:29:24;;;;;;;20.30;9.23;;;;;;;-141.28;100.00;49419.59;5045815;28;20211;-76
2022/08/25 01:31:56;;;;;;;20.80;9.60;;;;;;;-141.28;100.00;49439.22;5052393;28;20288;-78
2022/08/25 01:34:25;;;;;;;29.30;9.40;;;;;;;-141.28;100.00;49435.31;5051932;28;20193;-76
2022/08/25 01:36:55;;;;;;;22.13;9.23;;;;;;;-141.28;100.00;49443.16;5052691;28;20221;-76
2022/08/25 01:39:22;;;;;;;29.23;9.93;;;;;;;-141.28;100.00;49419.59;5052474;27;20214;-76
2022/08/25 01:42:18;;;;;;;24.87;9.13;;;;;;;-141.28;100.00;49529.50;5052364;28;20666;-76
2022/08/25 01:44:48;;;;;;;24.63;9.43;;;;;;;-141.28;100.00;49470.63;5014900;28;20197;-75
2022/08/25 01:47:17;;;;;;;18.63;9.07;;;;;;;-141.28;100.00;49388.22;5052508;28;20225;-76
2022/08/25 01:49:45;;;;;;;23.37;10.07;;;;;;;-141.28;100.00;49431.38;5052590;28;20245;-77
2022/08/25 01:52:16;;;;;;;19.20;8.83;;;;;;;-141.28;100.00;49333.25;5056660;28;20223;-76
2022/08/25 01:54:44;;;;;;;28.90;11.57;;;;;;;-141.28;100.00;49290.09;5039460;28;20209;-76
2022/08/25 01:57:11;;;;;;;26.33;10.23;;;;;;;-141.28;100.00;49231.22;5052423;28;20211;-76
2022/08/25 01:59:38;;;;;;;20.70;9.97;;;;;;;-141.28;100.00;49203.75;5052201;28;20573;-74
2022/08/25 02:02:06;;;;;;;17.13;9.93;;;;;;;-141.28;100.00;49168.44;5052207;28;20674;-75
2022/08/25 02:04:34;;;;;;;22.90;10.17;;;;;;;-141.28;100.00;49203.75;5052150;28;20491;-76
2022/08/25 02:07:04;;;;;;;23.67;10.07;;;;;;;-141.28;100.00;49199.84;5052525;28;20233;-77
2022/08/25 02:09:35;;;;;;;22.70;9.80;;;;;;;-141.28;100.00;49233.19;5051028;28;20577;-74
2022/08/25 02:12:04;;;;;;;25.60;9.43;;;;;;;-141.28;100.00;49211.59;5039604;28;20330;-76
2022/08/25 02:14:31;;;;;;;26.87;10.40;;;;;;;-141.28;100.00;49195.91;5051938;28;20212;-76
2022/08/25 02:16:59;;;;;;;23.50;10.87;;;;;;;-141.28;100.00;49172.38;5051955;28;20650;-76
2022/08/25 02:19:26;;;;;;;27.83;10.80;;;;;;;-141.28;100.00;49144.91;5051523;28;20682;-76
2022/08/25 02:21:54;;;;;;;21.83;9.73;;;;;;;-141.28;100.00;49144.91;5052187;28;20193;-76
2022/08/25 02:24:23;;;;;;;30.33;10.53;;;;;;;-141.28;100.00;49137.06;5051986;28;20204;-75
2022/08/25 02:26:51;;;;;;;23.33;10.13;;;;;;;-141.28;100.00;49140.97;5051570;28;20239;-76
2022/08/25 02:29:19;;;;;;;24.83;10.43;;;;;;;-141.28;100.00;49117.44;5051564;28;20215;-74
2022/08/25 02:31:47;;;;;;;28.20;11.30;;;;;;;-141.28;100.00;49105.66;5042468;28;20680;-75
2022/08/25 02:34:15;;;;;;;27.90;10.30;;;;;;;-141.28;100.00;49133.13;5048653;28;20271;-75
2022/08/25 02:36:43;;;;;;;33.77;10.83;;;;;;;-141.28;100.00;49119.38;5051494;28;20248;-75
2022/08/25 02:39:11;;;;;;;19.13;9.27;;;;;;;-141.28;100.00;49109.59;5050488;28;20193;-76
2022/08/25 02:41:39;;;;;;;23.47;9.67;;;;;;;-141.28;100.00;49074.25;5051481;28;20205;-75
2022/08/25 02:44:08;;;;;;;31.17;9.97;;;;;;;-141.28;100.00;49105.66;5051154;28;20200;-76
2022/08/25 02:46:35;;;;;;;21.00;10.00;;;;;;;-141.28;100.00;49099.78;5050637;28;20228;-75
2022/08/25 02:49:03;;;;;;;22.53;9.83;;;;;;;-141.28;100.00;49089.97;5050738;28;20201;-77
2022/08/25 02:51:31;;;;;;;29.63;10.33;;;;;;;-141.28;100.00;49089.97;5051202;28;20201;-75
2022/08/25 02:54:00;;;;;;;27.13;11.57;;;;;;;-141.28;100.00;49101.72;5051085;28;20251;-76
2022/08/25 02:56:28;;;;;;;23.57;10.07;;;;;;;-141.28;100.00;49117.44;5050954;28;20204;-76
2022/08/25 02:58:56;;;;;;;25.47;9.27;;;;;;;-141.28;100.00;49121.34;5050765;28;20201;-76
2022/08/25 03:01:26;;;;;;;28.40;10.10;;;;;;;-141.28;100.00;49117.44;5051030;28;20311;-77
2022/08/25 03:03:53;;;;;;;29.63;9.40;;;;;;;-141.28;100.00;49086.03;5039253;28;20201;-75
2022/08/25 03:06:23;;;;;;;25.40;9.33;;;;;;;-141.28;100.00;49082.13;5051359;28;20231;-75
2022/08/25 03:08:50;;;;;;;20.23;9.30;;;;;;;-141.28;100.00;49040.91;5050175;28;20197;-76
2022/08/25 03:11:17;;;;;;;23.10;8.60;;;;;;;-141.28;100.00;49058.56;5050743;28;20197;-75
2022/08/25 03:13:45;;;;;;;26.70;9.07;;;;;;;-141.28;100.00;49033.06;5051296;28;20197;-77
2022/08/25 03:16:13;;;;;;;29.53;9.13;;;;;;;-141.28;100.00;49052.69;5051065;28;20208;-76
2022/08/25 03:18:43;;;;;;;31.73;8.90;;;;;;;-141.28;100.00;49080.16;5050713;28;20200;-76
2022/08/25 03:21:12;;;;;;;25.00;8.97;;;;;;;-141.28;100.00;49066.41;5050594;28;20204;-75
2022/08/25 03:23:39;;;;;;;19.47;8.27;;;;;;;-141.28;100.00;49095.84;5050804;28;20232;-75
2022/08/25 03:28:51;;;;;;;22.80;9.23;;;;;;;-141.28;100.00;49223.38;5050991;28;20287;-76
2022/08/25 03:31:20;;;;;;;26.33;9.27;;;;;;;-141.28;100.00;49174.34;5050583;28;20203;-74
2022/08/25 03:33:49;;;;;;;24.33;9.00;;;;;;;-141.28;100.00;49197.88;5050660;28;20208;-76
2022/08/25 03:36:17;;;;;;;24.33;8.90;;;;;;;-141.28;100.00;49164.53;5050151;28;20216;-75
2022/08/25 03:38:44;;;;;;;26.70;9.07;;;;;;;-141.28;100.00;49160.59;5050632;28;20251;-76
2022/08/25 03:41:14;;;;;;;20.73;8.87;;;;;;;-141.28;100.00;49168.44;5050521;28;20578;-76
2022/08/25 03:43:42;;;;;;;21.57;8.17;;;;;;;-141.28;100.00;49184.13;5050692;28;20283;-76
2022/08/25 03:46:09;;;;;;;18.87;9.40;;;;;;;-141.28;100.00;49207.69;5050197;28;20250;-75
2022/08/25 03:48:36;;;;;;;20.23;8.50;;;;;;;-141.28;100.00;49201.81;5050266;28;20196;-76
2022/08/25 03:51:05;;;;;;;23.23;9.07;;;;;;;-141.28;100.00;49223.38;5049847;28;20208;-77
2022/08/25 03:53:34;;;;;;;18.90;8.17;;;;;;;-141.28;100.00;49227.31;5050627;28;20201;-76
2022/08/25 03:56:01;;;;;;;20.37;8.63;;;;;;;-141.28;100.00;49235.16;5040151;28;20205;-75
2022/08/25 03:58:29;;;;;;;17.50;9.17;;;;;;;-141.28;100.00;49262.63;5055100;28;20196;-76
2022/08/25 04:00:59;;;;;;;20.93;9.10;;;;;;;-141.28;100.00;49250.84;5054696;28;20690;-76
2022/08/25 04:03:26;;;;;;;25.67;8.30;;;;;;;-141.28;100.00;49290.09;5054484;28;20651;-75
2022/08/25 04:05:53;;;;;;;23.83;8.57;;;;;;;-141.28;100.00;49305.78;5054638;28;20196;-76
2022/08/25 04:08:23;;;;;;;24.33;8.83;;;;;;;-141.28;100.00;49327.38;5053113;28;20225;-77
2022/08/25 04:10:50;;;;;;;22.20;8.23;;;;;;;-141.28;100.00;49254.78;5054487;28;20197;-76
2022/08/25 04:13:17;;;;;;;18.13;8.33;;;;;;;-141.28;100.00;49348.97;5053924;28;20197;-76
2022/08/25 04:15:44;;;;;;;18.17;8.10;;;;;;;-141.28;100.00;49388.22;5054049;28;20197;-75
2022/08/25 04:18:12;;;;;;;25.60;8.80;;;;;;;-141.28;100.00;49415.69;5053620;28;20244;-76
2022/08/25 04:20:41;;;;;;;17.53;7.53;;;;;;;-141.28;100.00;49427.44;5053903;28;20201;-75
2022/08/25 04:23:09;;;;;;;17.60;8.90;;;;;;;-141.28;100.00;49462.78;5053774;28;20648;-75
2022/08/25 04:25:41;;;;;;;23.90;9.57;;;;;;;-141.28;100.00;49478.47;5053835;28;20237;-76
2022/08/25 04:28:09;;;;;;;26.83;10.13;;;;;;;-141.28;100.00;49486.31;5039840;28;20423;-74
2022/08/25 04:30:41;;;;;;;20.70;9.10;;;;;;;-141.28;100.00;49486.31;5053641;28;20659;-76
2022/08/25 04:33:08;;;;;;;24.73;9.30;;;;;;;-141.28;100.00;49517.72;5053909;28;20208;-75
2022/08/25 04:35:36;;;;;;;24.83;9.03;;;;;;;-141.28;100.00;49523.59;5053799;28;20221;-75
2022/08/25 04:38:03;;;;;;;30.20;9.20;;;;;;;-141.28;100.00;49560.88;5053743;28;20310;-74
2022/08/25 04:40:30;;;;;;;28.77;10.37;;;;;;;-141.28;100.00;49584.44;5053387;28;20684;-75
2022/08/25 04:42:59;;;;;;;25.17;9.67;;;;;;;-141.28;100.00;49609.94;5053697;28;20291;-74
2022/08/25 04:45:26;;;;;;;20.73;9.00;;;;;;;-141.28;100.00;49596.22;5053158;28;20201;-76
2022/08/25 04:47:59;;;;;;;27.63;10.17;;;;;;;-141.28;100.00;49613.88;5053340;28;20225;-75
2022/08/25 04:50:26;;;;;;;28.67;10.70;;;;;;;-141.28;100.00;49694.31;5053424;28;20200;-75
2022/08/25 04:52:54;;;;;;;24.50;9.43;;;;;;;-141.28;100.00;49696.28;5053410;28;20208;-75
2022/08/25 04:55:20;;;;;;;18.13;9.20;;;;;;;-141.28;100.00;49733.56;5053214;28;20213;-77
2022/08/25 04:57:49;;;;;;;31.00;10.63;;;;;;;-141.28;100.00;49772.81;5053069;28;20216;-75
2022/08/25 05:00:18;;;;;;;22.33;9.70;;;;;;;-141.28;100.00;49829.75;5052902;28;20208;-75
2022/08/25 05:02:45;;;;;;;25.90;10.63;;;;;;;-141.28;100.00;49847.41;5053248;28;20223;-76
2022/08/25 05:05:15;;;;;;;21.63;10.47;;;;;;;-141.28;100.00;49880.75;5053078;28;20203;-75
2022/08/25 05:07:42;;;;;;;24.93;11.67;;;;;;;-141.28;100.00;49945.53;5052640;28;20225;-75
2022/08/25 05:10:12;;;;;;;25.77;12.07;;;;;;;-141.28;100.00;49978.88;5051020;28;20201;-77
2022/08/25 05:12:40;;;;;;;24.10;10.80;;;;;;;-141.28;100.00;50008.34;5053140;28;20208;-76
2022/08/25 05:17:57;;;;;;;31.60;10.83;;;;;;;-141.28;100.00;50243.84;5052662;28;20670;-75
2022/08/25 05:20:26;;;;;;;25.33;10.70;;;;;;;-141.28;100.00;50179.09;5052784;28;20209;-76
2022/08/25 05:22:54;;;;;;;23.47;9.80;;;;;;;-141.28;100.00;50192.81;5040183;28;20196;-77
2022/08/25 05:25:21;;;;;;;22.90;10.90;;;;;;;-141.28;100.00;50173.19;5052698;28;20229;-76
2022/08/25 05:27:50;;;;;;;25.50;10.90;;;;;;;-141.28;100.00;50192.81;5052814;28;20213;-76
2022/08/25 05:30:18;;;;;;;33.50;10.33;;;;;;;-141.28;100.00;50283.09;5052332;28;20208;-76
2022/08/25 05:32:46;;;;;;;18.73;10.30;;;;;;;-141.28;100.00;50314.50;5052117;28;20237;-75
2022/08/25 05:35:15;;;;;;;22.77;9.43;;;;;;;-141.28;100.00;50400.88;5052181;28;20221;-75
2022/08/25 05:37:43;;;;;;;24.83;10.43;;;;;;;-141.28;100.00;50447.97;5052497;28;20224;-76
2022/08/25 05:40:10;;;;;;;21.93;9.83;;;;;;;-141.28;100.00;50522.56;5053077;28;20201;-75
2022/08/25 05:42:37;;;;;;;26.33;8.93;;;;;;;-141.28;100.00;50593.22;5052746;28;20212;-76
2022/08/25 05:45:06;;;;;;;22.10;9.20;;;;;;;-141.28;100.00;50679.59;5052362;28;20204;-76
2022/08/25 05:47:34;;;;;;;20.90;9.63;;;;;;;-141.28;100.00;50683.53;5052156;28;20225;-75
2022/08/25 05:50:02;;;;;;;19.43;9.00;;;;;;;-141.28;100.00;50871.97;5041377;28;20244;-75
2022/08/25 05:52:30;;;;;;;20.77;9.27;;;;;;;-141.28;100.00;50775.78;5050297;28;20193;-75
2022/08/25 05:54:59;;;;;;;22.97;8.63;;;;;;;-141.28;100.00;50946.59;5052392;28;20641;-76
2022/08/25 05:57:26;;;;;;;26.53;9.80;;;;;;;-141.28;100.00;50942.66;5052903;28;20223;-75
2022/08/25 05:59:54;;;;;;;21.97;9.10;;;;;;;-141.28;100.00;50944.63;5055503;28;20193;-76
2022/08/25 06:05:05;;;;;;;21.00;8.43;;;;;;;-141.28;100.00;51190.03;5039304;28;20204;-76
2022/08/25 06:07:35;;;;;;;19.50;8.90;;;;;;;-141.28;100.00;51123.28;5051405;28;20251;-75
2022/08/25 06:10:03;;;;;;;20.60;9.07;;;;;;;-141.28;100.00;51095.78;5040734;28;20236;-76
2022/08/25 06:12:31;;;;;;;24.37;8.60;;;;;;;-141.28;100.00;51123.28;5048900;28;20193;-75
2022/08/25 06:15:00;;;;;;;24.73;8.80;;;;;;;-141.28;100.00;51190.03;5052074;28;20731;-78
2022/08/25 06:17:27;;;;;;;21.17;8.63;;;;;;;-141.28;100.00;51245.00;5051448;28;20633;-76
2022/08/25 06:19:55;;;;;;;20.23;8.30;;;;;;;-141.28;100.00;51264.63;5051698;28;20207;-76
2022/08/25 06:22:24;;;;;;;26.00;9.17;;;;;;;-141.28;100.00;51378.50;5051287;28;20198;-75
2022/08/25 06:24:53;;;;;;;29.30;8.83;;;;;;;-141.28;100.00;51457.03;5051683;28;20225;-76
2022/08/25 06:27:21;;;;;;;20.67;8.63;;;;;;;-141.28;100.00;51582.69;5051379;28;20231;-75
2022/08/25 06:29:49;;;;;;;34.73;9.77;;;;;;;-141.28;100.00;51455.06;5051767;28;20203;-76
2022/08/25 06:32:17;;;;;;;26.50;9.43;;;;;;;-141.28;100.00;51720.16;5051471;28;20220;-75
2022/08/25 06:34:44;;;;;;;20.37;8.73;;;;;;;-141.28;100.00;51790.84;5051341;28;20193;-76
2022/08/25 06:37:11;;;;;;;21.53;7.77;;;;;;;-141.28;100.00;51786.91;5051199;28;20540;-76
2022/08/25 06:39:38;;;;;;;23.03;8.90;;;;;;;-141.28;100.00;51635.72;5051326;28;20200;-73
2022/08/25 06:42:07;;;;;;;27.07;9.23;;;;;;;-141.28;100.00;51832.06;5051359;28;20608;-76
2022/08/25 06:44:35;;;;;;;29.17;8.00;;;;;;;-141.28;100.00;51906.69;5051574;28;20201;-75
2022/08/25 06:47:04;;;;;;;22.23;9.30;;;;;;;-141.28;100.00;51951.84;5052542;28;20672;-77
2022/08/25 06:49:32;;;;;;;17.47;7.37;;;;;;;-141.28;100.00;51983.28;5054213;28;20230;-76
2022/08/25 06:51:59;;;;;;;22.17;8.43;;;;;;;-141.28;100.00;51975.44;5051668;28;20197;-76
2022/08/25 06:54:31;;;;;;;18.47;7.77;;;;;;;-141.28;100.00;51806.53;5051317;28;20208;-75
2022/08/25 06:57:00;;;;;;;28.67;8.43;;;;;;;-141.28;100.00;51637.69;5051022;28;20336;-74
2022/08/25 06:59:29;;;;;;;19.53;7.70;;;;;;;-141.28;100.00;51574.84;5051055;28;20199;-73
2022/08/25 07:01:56;;;;;;;25.33;8.93;;;;;;;-141.28;100.00;51502.19;5038664;28;20230;-75
2022/08/25 07:04:24;;;;;;;15.00;6.97;;;;;;;-141.28;100.00;51388.31;5051905;28;20194;-77
2022/08/25 07:06:51;;;;;;;20.00;7.57;;;;;;;-141.28;100.00;51331.38;5052634;28;20199;-76
2022/08/25 07:09:19;;;;;;;19.03;7.20;;;;;;;-141.28;100.00;51284.25;5051216;28;20280;-75
2022/08/25 07:11:47;;;;;;;23.33;8.00;;;;;;;-141.28;100.00;51268.56;5051008;28;20673;-75
2022/08/25 07:14:16;;;;;;;18.47;7.43;;;;;;;-141.28;100.00;51231.25;5039209;28;20204;-77
2022/08/25 07:16:46;;;;;;;26.87;7.37;;;;;;;-141.28;100.00;51197.88;5049473;28;20204;-76
2022/08/25 07:19:19;;;;;;;26.07;7.60;;;;;;;-141.28;100.00;51174.31;5050765;28;20207;-75
2022/08/25 07:21:47;;;;;;;15.93;7.17;;;;;;;-141.28;100.00;51231.25;5050868;28;20204;-75
2022/08/25 07:24:16;;;;;;;22.10;7.70;;;;;;;-141.28;100.00;51166.47;5050320;28;20253;-76
2022/08/25 07:26:45;;;;;;;23.90;7.07;;;;;;;-141.28;100.00;51131.13;5050814;28;20302;-75
2022/08/25 07:29:17;;;;;;;19.57;7.13;;;;;;;-141.28;100.00;51072.22;5051462;28;20236;-76
2022/08/25 07:31:45;;;;;;;25.67;8.00;;;;;;;-141.28;100.00;51048.66;5051338;28;20208;-75
2022/08/25 07:36:58;;;;;;;22.87;7.73;;;;;;;-141.28;100.00;51048.66;5051328;28;20229;-76
2022/08/25 07:39:27;;;;;;;20.60;7.30;;;;;;;-141.28;100.00;50958.38;5051368;28;20205;-76
2022/08/25 07:41:54;;;;;;;19.87;7.20;;;;;;;-141.28;100.00;50962.28;5051529;28;20655;-77
2022/08/25 07:44:22;;;;;;;18.67;7.40;;;;;;;-141.28;100.00;50930.88;5050812;28;20258;-76
2022/08/25 07:46:51;;;;;;;32.80;8.40;;;;;;;-141.28;100.00;50958.38;5083336;28;20194;-75
2022/08/25 07:49:18;;;;;;;25.33;7.80;;;;;;;-141.28;100.00;50923.03;5050360;28;20246;-76
2022/08/25 07:51:46;;;;;;;24.77;8.63;;;;;;;-141.28;100.00;50938.72;5050691;28;20205;-75
2022/08/25 07:54:13;;;;;;;21.57;8.27;;;;;;;-141.28;100.00;50972.09;5050725;28;20197;-76
2022/08/25 07:56:41;;;;;;;26.63;8.03;;;;;;;-141.28;100.00;50921.06;5050432;28;20193;-76
2022/08/25 07:59:09;;;;;;;28.93;8.10;;;;;;;-141.28;100.00;50925.00;5053307;28;20371;-75
2022/08/25 08:01:37;;;;;;;20.63;7.97;;;;;;;-141.28;100.00;51019.22;5052918;28;20209;-76
2022/08/25 08:04:05;;;;;;;27.07;7.63;;;;;;;-141.28;100.00;51105.59;5051192;28;20284;-75
2022/08/25 08:06:33;;;;;;;25.60;7.60;;;;;;;-141.28;100.00;51237.13;5038872;28;20198;-77
2022/08/25 08:09:01;;;;;;;27.93;8.33;;;;;;;-141.28;100.00;51245.00;5050440;28;20225;-76
2022/08/25 08:11:31;;;;;;;21.73;7.80;;;;;;;-141.28;100.00;51354.94;5050909;28;20204;-77
2022/08/25 08:13:59;;;;;;;27.00;8.57;;;;;;;-141.28;100.00;51396.16;5051269;28;20200;-75
2022/08/25 08:16:28;;;;;;;18.97;7.40;;;;;;;-141.28;100.00;51382.44;5050979;28;20208;-75
2022/08/25 08:18:56;;;;;;;29.13;6.97;;;;;;;-141.28;100.00;51492.38;5050988;28;20205;-75
2022/08/25 08:21:27;;;;;;;25.57;6.90;;;;;;;-141.28;100.00;51610.19;5050672;28;20197;-76
2022/08/25 08:23:57;;;;;;;38.63;7.37;;;;;;;-141.28;100.00;51673.03;5050937;28;20606;-76
2022/08/25 08:26:26;;;;;;;30.67;6.77;;;;;;;-141.28;100.00;51755.50;5050740;28;20288;-76
2022/08/25 08:28:54;;;;;;;33.83;7.33;;;;;;;-141.28;100.00;51688.72;5050759;28;20259;-76
2022/08/25 08:31:25;;;;;;;29.37;7.00;;;;;;;-141.28;100.00;51694.63;5051167;28;20197;-76
2022/08/25 08:33:53;;;;;;;36.90;7.37;;;;;;;-141.28;100.00;51753.53;5050630;28;20207;-75
2022/08/25 08:36:27;;;;;;;31.17;6.53;;;;;;;-141.28;100.00;51669.09;5050684;28;20220;-75
2022/08/25 08:38:54;;;;;;;30.33;7.87;;;;;;;-141.28;100.00;51688.72;5051466;28;20204;-76
2022/08/25 08:44:36;;;;;;;41.40;7.10;;;;;;;-141.28;100.00;51692.66;5050603;28;20655;-73
2022/08/25 08:47:06;;;;;;;22.80;5.80;;;;;;;-141.28;100.00;51604.28;5053920;28;20204;-76
2022/08/25 08:49:41;;;;;;;25.13;6.40;;;;;;;-141.28;100.00;51545.38;5054516;28;20228;-77
2022/08/25 08:52:12;;;;;;;25.27;5.93;;;;;;;-141.28;100.00;51521.84;5053893;28;20235;-75
2022/08/25 08:54:42;;;;;;;37.40;6.90;;;;;;;-141.28;100.00;51543.44;5054156;28;20197;-76
2022/08/25 08:57:15;;;;;;;27.80;5.57;;;;;;;-141.28;100.00;51457.03;5053556;28;20687;-75
2022/08/25 08:59:49;;;;;;;35.90;6.30;;;;;;;-141.28;100.00;51409.91;5054309;28;20204;-76
2022/08/25 09:02:29;;;;;;;27.90;5.73;;;;;;;-141.28;100.00;51398.13;5052475;28;20212;-74
2022/08/25 09:05:00;;;;;;;28.03;5.97;;;;;;;-141.28;100.00;51447.22;5053884;28;20201;-75
2022/08/25 09:07:33;;;;;;;30.73;7.00;;;;;;;-141.28;100.00;51398.13;5054003;28;20193;-75
2022/08/25 09:10:01;;;;;;;22.67;7.10;;;;;;;-141.28;100.00;51437.41;5052671;28;20224;-76
2022/08/25 09:12:39;;;;;;;30.57;6.30;;;;;;;-141.28;100.00;51390.28;5053621;28;20204;-75
2022/08/25 09:15:17;;;;;;;27.70;6.57;;;;;;;-141.28;100.00;51406.00;5053370;28;20208;-76
2022/08/25 09:18:03;;;;;;;22.50;5.50;;;;;;;-141.28;100.00;51376.53;5053517;28;20207;-75
2022/08/25 09:20:49;;;;;;;34.50;6.33;;;;;;;-141.28;100.00;51386.34;5053819;28;20228;-75
2022/08/25 09:23:32;;;;;;;29.33;6.00;;;;;;;-141.28;100.00;51356.91;5050240;28;20258;-75
2022/08/25 09:26:09;;;;;;;31.10;6.27;;;;;;;-141.28;100.00;51358.88;5053260;28;20224;-75
2022/08/25 09:28:43;;;;;;;23.20;5.37;;;;;;;-141.28;100.00;51378.50;5052881;28;20266;-75
2022/08/25 09:31:17;;;;;;;21.53;4.87;;;;;;;-141.28;100.00;50997.63;5053372;28;20675;-75
2022/08/25 09:33:46;;;;;;;19.87;5.00;;;;;;;-141.28;100.00;50938.72;5053510;28;20251;-76
2022/08/25 09:36:14;;;;;;;39.33;6.77;;;;;;;-141.28;100.00;50940.69;5052790;28;20228;-74
2022/08/25 09:38:43;;;;;;;31.10;5.03;;;;;;;-141.28;100.00;50707.09;5053213;28;20595;-75
2022/08/25 09:41:10;;;;;;;26.10;5.23;;;;;;;-141.28;100.00;50471.53;5052897;28;20717;-76
2022/08/25 09:43:42;;;;;;;23.30;5.27;;;;;;;-141.28;100.00;50294.88;5052952;28;20537;-74
2022/08/25 09:46:15;;;;;;;30.47;4.77;;;;;;;-141.28;100.00;50122.16;5052856;28;20203;-75
2022/08/25 09:48:45;;;;;;;25.20;4.40;;;;;;;-141.28;100.00;50077.03;5052811;28;20214;-75
2022/08/25 09:51:21;;;;;;;27.63;5.23;;;;;;;-141.28;100.00;50075.06;5052745;28;20230;-76
2022/08/25 09:53:56;;;;;;;22.80;4.80;;;;;;;-141.28;100.00;50202.63;5052852;28;20197;-74
2022/08/25 09:56:26;;;;;;;30.80;5.00;;;;;;;-141.28;100.00;50310.59;5052484;28;20207;-77
2022/08/25 09:58:54;;;;;;;30.97;5.37;;;;;;;-141.28;100.00;50361.63;5057175;28;20660;-76
2022/08/25 10:01:24;;;;;;;32.50;5.53;;;;;;;-141.28;100.00;50483.31;5052800;28;20569;-76
2022/08/25 10:04:06;;;;;;;25.13;5.20;;;;;;;-141.28;100.00;50589.31;5052468;28;20197;-76
2022/08/25 10:06:46;;;;;;;35.80;5.27;;;;;;;-141.28;100.00;50538.28;5052455;28;20593;-75
2022/08/25 10:09:31;;;;;;;25.27;5.23;;;;;;;-141.28;100.00;50538.28;5051517;28;20216;-75
2022/08/25 10:12:03;;;;;;;33.27;5.90;;;;;;;-141.28;100.00;50561.81;5039859;28;20280;-75
2022/08/25 10:14:35;;;;;;;23.70;5.53;;;;;;;-141.28;100.00;50632.50;5052710;28;20197;-76
2022/08/25 10:17:23;;;;;;;33.67;5.73;;;;;;;-141.28;100.00;50671.75;5052941;28;20271;-73
2022/08/25 10:19:51;;;;;;;33.80;5.03;;;;;;;-141.28;100.00;50616.78;5052277;28;20276;-76
2022/08/25 10:22:30;;;;;;;19.80;4.43;;;;;;;-141.28;100.00;50485.28;5052509;28;20208;-74
2022/08/25 10:25:01;;;;;;;24.67;4.67;;;;;;;-141.28;100.00;50314.50;5052211;28;20225;-75
2022/08/25 10:27:36;;;;;;;34.93;5.50;;;;;;;-141.28;100.00;50051.50;5052654;28;20193;-76
2022/08/25 10:30:11;;;;;;;27.90;4.83;;;;;;;-141.28;100.00;50039.72;5055514;28;20224;-74
2022/08/25 10:33:03;;;;;;;23.77;4.80;;;;;;;-141.28;100.00;50228.16;5056367;28;20747;-77
2022/08/25 10:35:39;;;;;;;30.13;5.00;;;;;;;-141.28;100.00;50236.00;5050060;28;20214;-77
2022/08/25 10:38:21;;;;;;;34.77;4.70;;;;;;;-141.28;100.00;50216.38;5052964;28;20214;-76
2022/08/25 10:41:01;;;;;;;33.83;4.23;;;;;;;-141.28;100.00;49908.25;5052356;28;20205;-75
2022/08/25 10:43:36;;;;;;;22.90;4.00;;;;;;;-141.28;100.00;49639.38;5052516;28;20197;-75
2022/08/25 10:46:10;;;;;;;30.03;4.60;;;;;;;-141.28;100.00;49164.53;5052773;28;20205;-76
2022/08/25 10:48:58;;;;;;;34.87;5.23;;;;;;;-141.28;100.00;49027.19;5052548;28;20277;-75
2022/08/25 10:51:40;;;;;;;23.13;3.97;;;;;;;-141.28;100.00;48811.34;5052197;28;20295;-76
2022/08/25 10:54:20;;;;;;;27.37;4.73;;;;;;;-141.28;100.00;48793.69;5041994;28;20198;-77
2022/08/25 10:57:01;;;;;;;20.40;4.90;;;;;;;-141.28;100.00;48842.75;5051910;28;20655;-76
2022/08/25 10:59:47;;;;;;;27.23;4.27;;;;;;;-141.28;100.00;48674.03;5052100;28;20227;-75
2022/08/25 11:02:47;;;;;;;21.97;3.57;;;;;;;-141.28;100.00;48721.13;5051972;28;20197;-76
2022/08/25 11:05:26;;;;;;;32.07;4.37;;;;;;;-141.28;100.00;48779.97;5052581;28;20279;-76
2022/08/25 11:08:03;;;;;;;26.23;4.23;;;;;;;-141.28;100.00;48760.34;5050692;28;20199;-77
2022/08/25 11:10:43;;;;;;;28.53;4.87;;;;;;;-141.28;100.00;48825.09;5051640;28;20226;-76
2022/08/25 11:13:23;;;;;;;23.03;4.37;;;;;;;-141.28;100.00;48799.59;5051381;28;20202;-76
2022/08/25 11:15:58;;;;;;;31.90;4.47;;;;;;;-141.28;100.00;48846.69;5051595;28;20197;-77
2022/08/25 11:18:30;;;;;;;26.90;4.37;;;;;;;-141.28;100.00;48929.06;5051159;28;20217;-77
2022/08/25 11:21:06;;;;;;;24.37;5.37;;;;;;;-141.28;100.00;48972.25;5038627;28;20260;-77
2022/08/25 11:23:37;;;;;;;25.87;4.67;;;;;;;-141.28;100.00;49109.59;5051317;28;20197;-75
2022/08/25 11:26:11;;;;;;;31.63;4.63;;;;;;;-141.28;100.00;49250.84;5083146;28;20308;-75
2022/08/25 11:28:54;;;;;;;27.60;5.13;;;;;;;-141.28;100.00;49246.94;5050938;28;20195;-76